createdAt,value
2023-03-13T00:02:00.881Z,40.36
2023-03-13T00:04:31.267Z,40.37
2023-03-13T00:07:03.536Z,40.43
2023-03-13T00:09:33.414Z,40.45
2023-03-13T00:12:08.793Z,40.39
2023-03-13T00:14:41.774Z,40.45
2023-03-13T00:17:16.356Z,40.42
2023-03-13T00:19:45.564Z,40.40
2023-03-13T00:22:20.912Z,40.41
2023-03-13T00:24:54.565Z,40.46
2023-03-13T00:27:29.652Z,40.42
2023-03-13T00:30:11.572Z,40.53
2023-03-13T00:32:50.196Z,40.45
2023-03-13T00:35:24.553Z,40.45
2023-03-13T00:37:55.807Z,40.42
2023-03-13T00:40:27.297Z,40.49
2023-03-13T00:42:55.224Z,40.42
2023-03-13T00:45:26.430Z,40.43
2023-03-13T00:48:04.688Z,40.49
2023-03-13T00:50:41.481Z,40.44
2023-03-13T00:53:15.464Z,40.48
2023-03-13T00:56:23.189Z,40.43
2023-03-13T00:58:55.572Z,40.41
2023-03-13T01:01:30.623Z,40.46
2023-03-13T01:04:11.006Z,40.42
2023-03-13T01:06:54.254Z,40.45
2023-03-13T01:09:25.261Z,40.48
2023-03-13T01:11:58.901Z,40.46
2023-03-13T01:14:33.010Z,40.45
2023-03-13T01:17:02.012Z,40.43
2023-03-13T01:19:30.888Z,40.46
2023-03-13T01:22:06.282Z,40.57
2023-03-13T01:24:41.488Z,40.47
2023-03-13T01:27:11.449Z,40.50
2023-03-13T01:29:43.577Z,40.44
2023-03-13T01:32:34.454Z,40.51
2023-03-13T01:35:06.814Z,40.48
2023-03-13T01:37:43.107Z,40.49
2023-03-13T01:40:23.634Z,40.46
2023-03-13T01:42:59.585Z,40.47
2023-03-13T01:46:05.908Z,40.49
2023-03-13T01:49:13.253Z,40.50
2023-03-13T01:51:46.612Z,40.53
2023-03-13T01:54:53.211Z,40.49
2023-03-13T02:00:31.965Z,40.59
2023-03-13T02:03:10.096Z,40.52
2023-03-13T02:05:41.929Z,40.54
2023-03-13T02:08:20.077Z,40.55
2023-03-13T02:11:22.128Z,40.54
2023-03-13T02:13:58.992Z,40.59
2023-03-13T02:16:35.763Z,40.58
2023-03-13T02:19:18.100Z,40.56
2023-03-13T02:22:42.389Z,40.51
2023-03-13T02:25:17.002Z,40.53
2023-03-13T02:27:48.746Z,40.55
2023-03-13T02:30:38.982Z,40.59
2023-03-13T02:33:17.291Z,40.59
2023-03-13T02:36:09.635Z,40.57
2023-03-13T02:39:07.543Z,40.60
2023-03-13T02:41:43.744Z,40.63
2023-03-13T02:44:35.766Z,40.58
2023-03-13T02:47:21.056Z,40.63
2023-03-13T02:49:55.962Z,40.65
2023-03-13T02:52:42.052Z,40.63
2023-03-13T02:55:30.133Z,40.69
2023-03-13T02:58:01.270Z,40.67
2023-03-13T03:00:40.291Z,40.63
2023-03-13T03:03:10.023Z,40.64
2023-03-13T03:05:38.994Z,40.59
2023-03-13T03:08:07.966Z,40.66
2023-03-13T03:10:39.875Z,40.61
2023-03-13T03:13:13.114Z,40.58
2023-03-13T03:15:46.113Z,40.60
2023-03-13T03:18:18.129Z,40.50
2023-03-13T03:20:53.077Z,40.60
2023-03-13T03:23:27.709Z,40.58
2023-03-13T03:25:56.172Z,40.61
2023-03-13T03:28:27.191Z,40.55
2023-03-13T03:30:59.964Z,40.73
2023-03-13T03:33:33.658Z,40.56
2023-03-13T03:36:08.965Z,40.67
2023-03-13T03:38:41.130Z,40.54
2023-03-13T03:41:17.558Z,40.57
2023-03-13T03:43:45.838Z,40.50
2023-03-13T03:46:20.393Z,40.57
2023-03-13T03:48:51.659Z,40.58
2023-03-13T03:51:24.869Z,40.59
2023-03-13T03:54:21.496Z,40.56
2023-03-13T03:57:01.123Z,40.57
2023-03-13T03:59:30.668Z,40.60
2023-03-13T04:02:04.694Z,40.59
2023-03-13T04:04:34.720Z,40.58
2023-03-13T04:07:06.854Z,40.67
2023-03-13T04:10:14.711Z,40.60
2023-03-13T04:13:04.160Z,40.63
2023-03-13T04:15:33.559Z,40.61
2023-03-13T04:18:16.284Z,40.62
2023-03-13T04:21:09.964Z,40.70
2023-03-13T04:24:11.359Z,40.67
2023-03-13T04:26:42.597Z,40.72
2023-03-13T04:29:26.849Z,40.65
2023-03-13T04:32:00.077Z,40.66
2023-03-13T04:34:34.663Z,40.56
2023-03-13T04:37:06.941Z,40.57
2023-03-13T04:39:35.845Z,40.61
2023-03-13T04:42:06.919Z,40.79
2023-03-13T04:44:45.304Z,40.69
2023-03-13T04:47:26.137Z,40.44
2023-03-13T04:49:56.730Z,40.32
2023-03-13T04:52:31.234Z,40.29
2023-03-13T04:55:03.055Z,40.25
2023-03-13T04:57:41.837Z,40.28
2023-03-13T05:00:21.663Z,40.21
2023-03-13T05:03:01.757Z,40.17
2023-03-13T05:05:34.197Z,40.20
2023-03-13T05:08:10.369Z,40.16
2023-03-13T05:10:42.436Z,40.15
2023-03-13T05:13:15.517Z,40.17
2023-03-13T05:15:47.993Z,40.23
2023-03-13T05:18:21.855Z,40.12
2023-03-13T05:20:51.180Z,40.29
2023-03-13T05:23:26.650Z,40.30
2023-03-13T05:25:55.833Z,40.34
2023-03-13T05:28:31.400Z,40.43
2023-03-13T05:31:09.066Z,40.47
2023-03-13T05:33:46.507Z,40.51
2023-03-13T05:36:32.384Z,40.47
2023-03-13T05:39:07.144Z,37.24
2023-03-13T05:41:59.215Z,36.85
2023-03-13T05:44:32.993Z,36.33
2023-03-13T05:47:09.223Z,36.08
2023-03-13T05:49:40.160Z,35.79
2023-03-13T05:52:12.837Z,35.71
2023-03-13T05:54:47.519Z,35.32
2023-03-13T05:57:25.157Z,34.71
2023-03-13T05:59:57.830Z,34.60
2023-03-13T06:02:30.817Z,34.62
2023-03-13T06:05:04.735Z,34.36
2023-03-13T06:07:38.422Z,34.33
2023-03-13T06:10:09.572Z,34.27
2023-03-13T06:12:39.858Z,34.32
2023-03-13T06:15:13.882Z,33.73
2023-03-13T06:17:44.312Z,33.36
2023-03-13T06:20:19.081Z,34.88
2023-03-13T06:22:52.246Z,36.72
2023-03-13T06:25:25.954Z,37.70
2023-03-13T06:28:03.007Z,37.63
2023-03-13T06:30:37.960Z,38.58
2023-03-13T06:33:08.126Z,38.72
2023-03-13T06:35:54.815Z,39.05
2023-03-13T06:38:29.751Z,39.22
2023-03-13T06:41:00.533Z,39.67
2023-03-13T06:43:28.611Z,39.91
2023-03-13T06:46:08.558Z,39.81
2023-03-13T06:48:43.751Z,39.77
2023-03-13T06:51:20.968Z,40.00
2023-03-13T06:53:49.106Z,40.23
2023-03-13T06:56:19.102Z,39.95
2023-03-13T06:58:58.045Z,39.61
2023-03-13T07:01:32.558Z,40.19
2023-03-13T07:03:59.848Z,39.86
2023-03-13T07:06:30.479Z,39.37
2023-03-13T07:08:57.847Z,39.04
2023-03-13T07:11:28.337Z,38.68
2023-03-13T07:14:10.038Z,38.54
2023-03-13T07:16:45.854Z,38.50
2023-03-13T07:19:21.535Z,38.73
2023-03-13T07:21:51.983Z,38.33
2023-03-13T07:24:22.503Z,38.13
2023-03-13T07:27:04.886Z,37.92
2023-03-13T07:29:39.853Z,37.78
2023-03-13T07:32:14.931Z,37.43
2023-03-13T07:34:45.114Z,37.60
2023-03-13T07:37:12.951Z,37.31
2023-03-13T07:39:39.897Z,37.32
2023-03-13T07:42:07.471Z,36.82
2023-03-13T07:44:34.418Z,37.04
2023-03-13T07:47:07.767Z,37.55
2023-03-13T07:49:41.214Z,37.90
2023-03-13T07:52:17.023Z,38.14
2023-03-13T07:54:48.228Z,37.75
2023-03-13T07:57:15.403Z,37.86
2023-03-13T07:59:42.441Z,37.93
2023-03-13T08:02:13.669Z,38.03
2023-03-13T08:04:45.041Z,38.30
2023-03-13T08:07:19.295Z,38.35
2023-03-13T08:09:50.435Z,38.38
2023-03-13T08:12:21.108Z,38.60
2023-03-13T08:14:48.279Z,38.67
2023-03-13T08:17:23.616Z,38.81
2023-03-13T08:19:59.552Z,38.70
2023-03-13T08:22:30.221Z,38.79
2023-03-13T08:25:09.414Z,38.72
2023-03-13T08:27:40.082Z,38.44
2023-03-13T08:30:13.166Z,37.18
2023-03-13T08:32:41.208Z,37.77
2023-03-13T08:35:08.959Z,37.87
2023-03-13T08:37:38.822Z,37.99
2023-03-13T08:40:07.858Z,38.09
2023-03-13T08:42:39.288Z,38.10
2023-03-13T08:45:13.142Z,38.11
2023-03-13T08:47:40.050Z,38.15
2023-03-13T08:50:10.448Z,38.06
2023-03-13T08:52:38.478Z,38.27
2023-03-13T08:55:14.299Z,38.25
2023-03-13T08:57:41.304Z,38.25
2023-03-13T09:00:11.701Z,38.37
2023-03-13T09:02:41.946Z,38.53
2023-03-13T09:05:10.624Z,38.50
2023-03-13T09:07:37.606Z,38.58
2023-03-13T09:10:08.211Z,38.78
2023-03-13T09:12:48.425Z,38.43
2023-03-13T09:15:21.962Z,38.09
2023-03-13T09:17:52.315Z,36.21
2023-03-13T09:20:22.084Z,37.04
2023-03-13T09:22:52.709Z,34.91
2023-03-13T09:25:22.803Z,34.99
2023-03-13T09:27:50.213Z,36.35
2023-03-13T09:30:20.486Z,36.86
2023-03-13T09:32:50.987Z,37.08
2023-03-13T09:35:21.486Z,37.13
2023-03-13T09:37:53.980Z,37.23
2023-03-13T09:40:28.976Z,37.36
2023-03-13T09:43:07.139Z,37.48
2023-03-13T09:45:44.774Z,37.50
2023-03-13T09:48:34.800Z,37.47
2023-03-13T09:51:18.191Z,37.47
2023-03-13T09:54:06.455Z,36.91
2023-03-13T09:56:51.285Z,36.94
2023-03-13T09:59:46.151Z,37.44
2023-03-13T10:02:33.173Z,37.40
2023-03-13T10:05:08.356Z,37.70
2023-03-13T10:07:37.842Z,38.02
2023-03-13T10:10:13.966Z,38.21
2023-03-13T10:12:58.571Z,38.43
2023-03-13T10:15:33.256Z,38.60
2023-03-13T10:18:22.444Z,38.67
2023-03-13T10:20:53.760Z,38.98
2023-03-13T10:23:30.115Z,39.33
2023-03-13T10:26:01.141Z,39.76
2023-03-13T10:28:28.923Z,40.11
2023-03-13T10:31:13.104Z,40.11
2023-03-13T10:33:44.957Z,40.73
2023-03-13T10:36:17.304Z,41.54
2023-03-13T10:38:53.214Z,41.96
2023-03-13T10:41:36.954Z,42.35
2023-03-13T10:44:16.703Z,42.26
2023-03-13T10:46:55.524Z,42.67
2023-03-13T10:49:34.151Z,42.63
2023-03-13T10:52:05.306Z,42.35
2023-03-13T10:54:40.514Z,42.52
2023-03-13T10:57:26.289Z,42.32
2023-03-13T10:59:54.975Z,41.91
2023-03-13T11:02:33.112Z,41.79
2023-03-13T11:05:01.620Z,41.95
2023-03-13T11:07:38.407Z,41.84
2023-03-13T11:10:21.157Z,41.88
2023-03-13T11:13:01.540Z,41.96
2023-03-13T11:15:47.247Z,41.54
2023-03-13T11:18:30.440Z,41.41
2023-03-13T11:21:17.481Z,41.63
2023-03-13T11:23:56.379Z,41.29
2023-03-13T11:26:37.411Z,41.97
2023-03-13T11:29:40.713Z,41.87
2023-03-13T11:32:41.712Z,42.19
2023-03-13T11:35:49.955Z,42.04
2023-03-13T11:38:39.385Z,41.76
2023-03-13T11:41:45.165Z,41.58
2023-03-13T11:44:49.213Z,41.72
2023-03-13T11:47:23.164Z,41.68
2023-03-13T11:50:13.093Z,41.88
2023-03-13T11:53:12.567Z,41.97
2023-03-13T11:55:56.037Z,41.87
2023-03-13T11:58:49.776Z,42.07
2023-03-13T12:01:25.111Z,42.01
2023-03-13T12:04:02.254Z,42.17
2023-03-13T12:06:44.662Z,42.24
2023-03-13T12:09:28.263Z,42.25
2023-03-13T12:12:36.573Z,42.41
2023-03-13T12:15:35.494Z,42.48
2023-03-13T12:18:24.138Z,42.89
2023-03-13T12:21:19.554Z,42.92
2023-03-13T12:24:12.096Z,42.94
2023-03-13T12:26:46.105Z,42.92
2023-03-13T12:29:38.939Z,42.87
2023-03-13T12:32:21.836Z,42.88
2023-03-13T12:35:18.305Z,42.77
2023-03-13T12:38:24.340Z,42.74
2023-03-13T12:41:12.947Z,42.75
2023-03-13T12:44:00.638Z,42.87
2023-03-13T12:46:49.353Z,42.78
2023-03-13T12:49:37.889Z,41.48
2023-03-13T12:52:51.933Z,41.45
2023-03-13T12:55:46.700Z,40.99
2023-03-13T12:58:29.604Z,39.87
2023-03-13T13:01:04.087Z,39.56
2023-03-13T13:03:33.814Z,38.74
2023-03-13T13:06:12.881Z,38.93
2023-03-13T13:08:48.557Z,38.44
2023-03-13T13:11:34.297Z,38.10
2023-03-13T13:14:06.412Z,37.03
2023-03-13T13:16:45.101Z,38.79
2023-03-13T13:19:40.304Z,37.53
2023-03-13T13:22:39.692Z,38.15
2023-03-13T13:25:18.532Z,38.13
2023-03-13T13:27:51.886Z,37.40
2023-03-13T13:30:39.379Z,36.73
2023-03-13T13:33:21.587Z,37.04
2023-03-13T13:36:27.296Z,36.54
2023-03-13T13:38:59.885Z,37.41
2023-03-13T13:41:35.771Z,36.58
2023-03-13T13:44:23.473Z,37.17
2023-03-13T13:46:57.194Z,36.94
2023-03-13T13:49:32.888Z,37.51
2023-03-13T13:52:02.981Z,37.90
2023-03-13T13:54:44.983Z,38.11
2023-03-13T13:57:19.812Z,38.04
2023-03-13T13:59:51.807Z,38.02
2023-03-13T14:02:33.525Z,38.14
2023-03-13T14:05:03.872Z,38.22
2023-03-13T14:07:52.034Z,38.56
2023-03-13T14:10:40.758Z,38.80
2023-03-13T14:13:21.460Z,38.90
2023-03-13T14:15:51.308Z,39.06
2023-03-13T14:18:30.503Z,39.21
2023-03-13T14:21:06.220Z,39.37
2023-03-13T14:23:37.931Z,40.03
2023-03-13T14:26:23.016Z,40.11
2023-03-13T14:29:05.387Z,40.13
2023-03-13T14:31:39.612Z,40.14
2023-03-13T14:34:15.810Z,40.18
2023-03-13T14:36:51.938Z,40.14
2023-03-13T14:39:32.357Z,40.15
2023-03-13T14:42:19.334Z,40.20
2023-03-13T14:44:51.923Z,40.23
2023-03-13T14:47:31.064Z,40.27
2023-03-13T14:50:15.372Z,40.46
2023-03-13T14:53:00.306Z,40.54
2023-03-13T14:55:35.126Z,40.59
2023-03-13T14:58:27.247Z,40.63
2023-03-13T15:00:58.889Z,40.71
2023-03-13T15:03:34.342Z,40.79
2023-03-13T15:06:21.231Z,41.18
2023-03-13T15:09:11.363Z,41.17
2023-03-13T15:12:09.474Z,41.46
2023-03-13T15:14:42.703Z,41.38
2023-03-13T15:17:24.059Z,41.28
2023-03-13T15:19:56.662Z,41.37
2023-03-13T15:22:40.464Z,41.31
2023-03-13T15:25:19.092Z,41.31
2023-03-13T15:27:46.971Z,41.51
2023-03-13T15:30:24.103Z,41.38
2023-03-13T15:32:52.003Z,41.41
2023-03-13T15:35:30.769Z,41.26
2023-03-13T15:38:05.279Z,41.39
2023-03-13T15:40:35.859Z,41.42
2023-03-13T15:43:03.336Z,41.38
2023-03-13T15:45:36.348Z,41.45
2023-03-13T15:48:03.370Z,41.60
2023-03-13T15:50:30.877Z,41.86
2023-03-13T15:52:58.947Z,41.98
2023-03-13T15:55:27.705Z,41.93
2023-03-13T15:57:54.914Z,41.99
2023-03-13T16:00:27.160Z,41.88
2023-03-13T16:02:56.719Z,41.83
2023-03-13T16:05:27.511Z,41.82
2023-03-13T16:07:58.685Z,42.04
2023-03-13T16:10:32.113Z,41.98
2023-03-13T16:12:59.644Z,41.94
2023-03-13T16:15:28.192Z,41.01
2023-03-13T16:17:55.166Z,41.39
2023-03-13T16:20:26.818Z,41.50
2023-03-13T16:22:56.412Z,41.46
2023-03-13T16:25:27.203Z,41.43
2023-03-13T16:27:54.249Z,41.39
2023-03-13T16:30:27.787Z,41.33
2023-03-13T16:33:06.299Z,41.35
2023-03-13T16:35:35.076Z,41.30
2023-03-13T16:38:05.243Z,41.26
2023-03-13T16:40:36.434Z,41.19
2023-03-13T16:43:03.904Z,41.17
2023-03-13T16:45:34.285Z,41.21
2023-03-13T16:48:14.372Z,41.22
2023-03-13T16:50:44.226Z,41.25
2023-03-13T16:53:12.029Z,41.26
2023-03-13T16:55:39.482Z,41.28
2023-03-13T16:58:13.874Z,41.37
2023-03-13T17:01:02.717Z,41.37
2023-03-13T17:03:43.051Z,41.37
2023-03-13T17:06:25.978Z,41.49
2023-03-13T17:08:56.083Z,41.20
2023-03-13T17:11:26.888Z,41.36
2023-03-13T17:13:57.197Z,41.51
2023-03-13T17:16:35.961Z,41.53
2023-03-13T17:19:10.894Z,41.62
2023-03-13T17:21:41.094Z,41.79
2023-03-13T17:24:26.281Z,42.13
2023-03-13T17:26:57.449Z,42.64
2023-03-13T17:29:28.983Z,42.16
2023-03-13T17:31:59.370Z,41.75
2023-03-13T17:34:31.086Z,41.66
2023-03-13T17:36:59.710Z,41.63
2023-03-13T17:39:29.938Z,41.54
2023-03-13T17:41:58.782Z,41.52
2023-03-13T17:44:30.646Z,41.49
2023-03-13T17:47:02.139Z,41.69
2023-03-13T17:49:30.246Z,41.70
2023-03-13T17:52:06.106Z,41.47
2023-03-13T17:54:38.830Z,41.46
2023-03-13T17:57:15.139Z,41.66
2023-03-13T17:59:45.482Z,41.57
2023-03-13T18:02:21.171Z,41.59
2023-03-13T18:04:56.517Z,41.58
2023-03-13T18:07:28.603Z,41.55
2023-03-13T18:10:00.425Z,41.60
2023-03-13T18:12:27.510Z,41.59
2023-03-13T18:14:54.996Z,41.54
2023-03-13T18:17:31.201Z,41.45
2023-03-13T18:20:05.539Z,41.78
2023-03-13T18:22:34.854Z,41.75
2023-03-13T18:25:18.430Z,41.71
2023-03-13T18:27:55.688Z,41.99
2023-03-13T18:30:26.840Z,42.00
2023-03-13T18:32:58.519Z,41.99
2023-03-13T18:35:27.954Z,41.69
2023-03-13T18:38:05.952Z,41.91
2023-03-13T18:40:41.539Z,42.45
2023-03-13T18:43:14.274Z,42.34
2023-03-13T18:45:41.651Z,42.51
2023-03-13T18:48:28.143Z,42.44
2023-03-13T18:50:58.610Z,41.56
2023-03-13T18:53:31.344Z,41.48
2023-03-13T18:56:25.315Z,41.65
2023-03-13T18:58:56.441Z,41.64
2023-03-13T19:01:32.564Z,41.64
2023-03-13T19:04:01.107Z,41.41
2023-03-13T19:06:33.775Z,41.46
2023-03-13T19:09:43.052Z,42.32
2023-03-13T19:12:14.847Z,41.97
2023-03-13T19:14:52.238Z,42.11
2023-03-13T19:17:26.864Z,41.96
2023-03-13T19:19:55.322Z,42.09
2023-03-13T19:22:28.681Z,41.91
2023-03-13T19:24:59.672Z,41.76
2023-03-13T19:27:28.123Z,41.65
2023-03-13T19:30:01.373Z,41.59
2023-03-13T19:32:31.894Z,41.43
2023-03-13T19:35:02.755Z,41.27
2023-03-13T19:37:34.552Z,41.13
2023-03-13T19:40:07.833Z,41.08
2023-03-13T19:42:40.784Z,40.94
2023-03-13T19:45:15.758Z,40.97
2023-03-13T19:47:43.794Z,40.75
2023-03-13T19:50:34.229Z,40.76
2023-03-13T19:53:04.548Z,40.65
2023-03-13T19:55:35.283Z,40.57
2023-03-13T19:58:03.165Z,40.52
2023-03-13T20:00:31.407Z,40.48
2023-03-13T20:03:10.437Z,40.34
2023-03-13T20:05:41.756Z,40.23
2023-03-13T20:08:15.933Z,40.26
2023-03-13T20:10:58.212Z,40.09
2023-03-13T20:13:40.472Z,40.04
2023-03-13T20:16:22.208Z,39.97
2023-03-13T20:18:54.473Z,40.00
2023-03-13T20:21:28.856Z,40.21
2023-03-13T20:23:55.895Z,39.96
2023-03-13T20:26:23.777Z,39.91
2023-03-13T20:28:52.101Z,39.82
2023-03-13T20:31:23.065Z,39.80
2023-03-13T20:33:56.348Z,39.90
2023-03-13T20:36:32.650Z,39.80
2023-03-13T20:39:00.032Z,39.79
2023-03-13T20:41:43.992Z,39.80
2023-03-13T20:44:17.048Z,39.77
2023-03-13T20:46:44.882Z,39.75
2023-03-13T20:49:19.021Z,39.78
2023-03-13T20:51:49.291Z,39.74
2023-03-13T20:54:22.351Z,39.76
2023-03-13T20:56:50.100Z,39.73
2023-03-13T20:59:24.328Z,39.70
2023-03-13T21:01:55.208Z,39.70
2023-03-13T21:04:28.560Z,39.71
2023-03-13T21:07:01.445Z,39.78
2023-03-13T21:09:34.498Z,39.73
2023-03-13T21:12:08.952Z,39.75
2023-03-13T21:14:42.554Z,39.78
2023-03-13T21:17:15.742Z,39.74
2023-03-13T21:19:49.653Z,39.69
2023-03-13T21:22:18.544Z,39.72
2023-03-13T21:24:51.271Z,39.67
2023-03-13T21:27:18.961Z,39.71
2023-03-13T21:29:52.530Z,39.68
2023-03-13T21:32:25.614Z,39.68
2023-03-13T21:34:52.687Z,39.66
2023-03-13T21:37:26.222Z,39.66
2023-03-13T21:39:57.649Z,39.68
2023-03-13T21:42:24.694Z,39.66
2023-03-13T21:44:54.822Z,39.73
2023-03-13T21:47:28.811Z,39.71
2023-03-13T21:50:02.329Z,39.64
2023-03-13T21:52:32.594Z,39.66
2023-03-13T21:55:06.575Z,39.64
2023-03-13T21:57:36.565Z,39.59
2023-03-13T22:00:07.540Z,39.57
2023-03-13T22:02:36.133Z,39.59
2023-03-13T22:05:06.455Z,39.62
2023-03-13T22:07:35.195Z,39.59
2023-03-13T22:10:05.329Z,39.53
2023-03-13T22:12:47.465Z,39.55
2023-03-13T22:15:20.093Z,39.49
2023-03-13T22:17:53.445Z,39.57
2023-03-13T22:20:23.951Z,39.66
2023-03-13T22:23:00.673Z,39.53
2023-03-13T22:25:30.706Z,39.50
2023-03-13T22:28:03.506Z,39.50
2023-03-13T22:30:35.965Z,39.41
2023-03-13T22:33:15.962Z,39.46
2023-03-13T22:35:45.746Z,39.44
2023-03-13T22:38:13.105Z,39.45
2023-03-13T22:40:43.365Z,39.48
2023-03-13T22:43:13.842Z,39.48
2023-03-13T22:45:41.556Z,39.48
2023-03-13T22:48:13.418Z,39.48
2023-03-13T22:50:46.344Z,39.52
2023-03-13T22:53:19.808Z,39.57
2023-03-13T22:55:49.701Z,39.47
2023-03-13T22:58:22.761Z,39.49
2023-03-13T23:00:55.446Z,39.57
2023-03-13T23:03:29.090Z,39.57
2023-03-13T23:05:56.072Z,39.47
2023-03-13T23:08:23.298Z,39.49
2023-03-13T23:10:56.529Z,39.49
2023-03-13T23:13:27.492Z,39.49
2023-03-13T23:15:56.068Z,39.91
2023-03-13T23:18:30.896Z,39.90
2023-03-13T23:21:04.262Z,39.95
2023-03-13T23:23:31.793Z,40.27
2023-03-13T23:26:09.603Z,40.41
2023-03-13T23:28:43.842Z,40.43
2023-03-13T23:31:19.402Z,40.36
2023-03-13T23:33:53.269Z,40.36
2023-03-13T23:36:23.820Z,40.37
2023-03-13T23:39:00.963Z,40.35
2023-03-13T23:41:31.164Z,40.40
2023-03-13T23:44:02.061Z,40.46
2023-03-13T23:46:31.111Z,40.51
2023-03-13T23:49:09.586Z,40.46
2023-03-13T23:51:42.469Z,40.49
2023-03-13T23:54:12.004Z,40.54
2023-03-13T23:56:42.420Z,40.63
2023-03-13T23:59:15.658Z,40.61
